Main page
METAR-TAF:

METAR-TAF

Airports :

Daşoguz Airport

Daşoguz, Turkmenistan

latitude: 41-45-53N, longitude: 059-49-59E, elevation: 83 m

Current weather observation

The report was made 1 hour and 1 minutes ago, at 16:00 UTC
Wind 8 kt from the Northwest
Temperature 31°C
Humidity 26%
Pressure 1002 hPa
Visibility 10 km or more
no clouds below 1500 m and no cumulonimbus

METAR: UTAT 091600Z 31008KT CAVOK 31/09 Q1002 R26/CLRD70 NOSIG

Time: 22:01 (17:01 UTC)

Forecast

The report was made 6 hours and 19 minutes ago, at 10:42 UTC
Forecast valid from 09 at 12 UTC to 10 at 12 UTC
Wind 12 kt from the West with gusts up to 22 kt
Visibility 10 km or more
Scattered clouds at a height of 5000 ft, Cumulonimbus.
Broken clouds at a height of 10000 ft
Temporary
from 09 at 12 UTC to 09 at 18 UTC
Wind 18 kt from the North/Northwest with gusts up to 28 kt

TAF: UTAT 091042Z 0912/1012 27012G22KT 9999 SCT050CB BKN100 TEMPO 0912/0918 33018G28KT

Weather observations and forecasts of more than 4000 airports (METAR and TAF reports).

The available stations are represented by yellow and red dots on the map.

Hover mouse over dot to see the name of the station.

Then click to see weather observations and forecasts.

To change the map : click on the green buttons with a black cross to zoom in, on the green button with a dash to zoom out, or on the green arrows for adjacent maps.


METAR-TAF: